Time;durP1;ratioP1;P1;durP2;ratioP2;P2;SDS_P1;SDS_P2;PMS_P1;PMS_P2;Temp;Humidity;BMP_temperature;BMP_pressure;BME280_temperature;BME280_humidity;BME280_pressure;Samples;Min_cycle;Max_cycle;Signal;HPM_P1;HPM_P2
2022/09/30 00:00:42;;;;;;;0.93;0.93;;;;;;;13.56;74.70;96080.84;5055361;28;20467;-64
2022/09/30 00:03:09;;;;;;;1.38;1.10;;;;;;;13.59;74.81;96080.66;5055422;28;20399;-64
2022/09/30 00:05:36;;;;;;;0.98;0.85;;;;;;;13.57;74.52;96084.31;5055288;28;20122;-64
2022/09/30 00:08:03;;;;;;;1.55;1.15;;;;;;;13.49;74.61;96093.47;5055216;28;20111;-64
2022/09/30 00:10:30;;;;;;;1.30;1.05;;;;;;;13.50;74.79;96091.69;5055158;28;20041;-64
2022/09/30 00:12:57;;;;;;;1.40;1.00;;;;;;;13.50;75.10;96099.59;5055106;28;20123;-64
2022/09/30 00:15:27;;;;;;;0.90;0.90;;;;;;;13.47;75.16;96099.72;5054954;28;20041;-64
2022/09/30 00:17:54;;;;;;;1.05;0.95;;;;;;;13.44;75.24;96107.78;5054968;28;20059;-64
2022/09/30 00:20:21;;;;;;;1.17;1.08;;;;;;;13.44;74.80;96115.66;5054971;28;20045;-64
2022/09/30 00:22:48;;;;;;;1.13;1.05;;;;;;;13.34;74.74;96115.34;5054930;28;20049;-64
2022/09/30 00:25:15;;;;;;;1.40;1.17;;;;;;;13.25;75.84;96108.81;5054960;28;20045;-64
2022/09/30 00:27:42;;;;;;;1.42;1.33;;;;;;;13.29;76.24;96107.72;5054582;28;20100;-63
2022/09/30 00:30:10;;;;;;;1.13;0.98;;;;;;;13.25;75.79;96117.53;5054840;28;20088;-63
2022/09/30 00:32:39;;;;;;;0.90;0.90;;;;;;;13.10;76.63;96126.28;5054740;28;20048;-63
2022/09/30 00:35:07;;;;;;;1.10;1.00;;;;;;;13.05;76.61;96120.41;5054635;28;20136;-64
2022/09/30 00:37:34;;;;;;;1.13;1.02;;;;;;;12.92;77.53;96118.47;5054850;28;20080;-64
2022/09/30 00:40:02;;;;;;;3.42;1.10;;;;;;;12.88;77.95;96120.41;5054745;28;20128;-64
2022/09/30 00:42:30;;;;;;;1.15;1.02;;;;;;;12.86;78.25;96127.50;5054724;28;20049;-64
2022/09/30 00:45:04;;;;;;;1.50;0.95;;;;;;;12.88;78.37;96119.53;5054471;28;20084;-64
2022/09/30 00:47:52;;;;;;;1.02;0.90;;;;;;;12.85;78.02;96112.69;5054502;28;20052;-64
2022/09/30 00:50:29;;;;;;;2.10;1.52;;;;;;;12.81;78.58;96108.53;5054346;28;20478;-64
2022/09/30 00:53:02;;;;;;;2.15;1.33;;;;;;;12.82;78.74;96114.66;5054401;28;20128;-64
2022/09/30 00:55:39;;;;;;;1.55;1.10;;;;;;;12.85;78.51;96117.94;5054482;28;20045;-64
2022/09/30 00:58:09;;;;;;;1.10;1.00;;;;;;;12.88;77.93;96117.78;5054320;28;20045;-64
2022/09/30 01:00:37;;;;;;;1.23;1.13;;;;;;;12.90;78.07;96117.69;5054286;28;20064;-64
2022/09/30 01:03:06;;;;;;;1.05;0.95;;;;;;;12.91;78.13;96115.94;5054267;28;20479;-64
2022/09/30 01:05:34;;;;;;;2.05;1.55;;;;;;;12.89;78.40;96121.25;5054037;28;20041;-64
2022/09/30 01:08:05;;;;;;;1.20;1.15;;;;;;;12.91;78.04;96118.56;5053911;28;20434;-64
2022/09/30 01:10:32;;;;;;;;;;;;;;;12.93;77.38;96121.94;5054411;28;20053;-64
2022/09/30 01:13:00;;;;;;;1.25;1.15;;;;;;;12.92;77.16;96128.97;5054067;28;19967;-64
2022/09/30 01:15:43;;;;;;;1.40;1.10;;;;;;;12.94;77.23;96129.72;5053949;28;20076;-64
2022/09/30 01:18:24;;;;;;;1.13;1.00;;;;;;;12.94;77.17;96142.00;5053927;28;20049;-64
2022/09/30 01:21:28;;;;;;;1.30;1.20;;;;;;;12.90;77.21;96138.69;5054092;28;20136;-64
2022/09/30 01:24:24;;;;;;;1.40;1.30;;;;;;;12.88;76.95;96145.78;5038785;28;20044;-64
2022/09/30 01:27:31;;;;;;;1.00;0.90;;;;;;;12.83;77.03;96147.84;5053782;28;20080;-64
2022/09/30 01:30:06;;;;;;;1.45;1.10;;;;;;;12.81;77.09;96152.31;5053717;28;20045;-64
2022/09/30 01:33:02;;;;;;;2.40;1.30;;;;;;;12.77;77.36;96154.25;5053560;28;20045;-64
2022/09/30 01:35:41;;;;;;;1.40;1.10;;;;;;;12.77;77.27;96162.97;5053460;28;20483;-64
2022/09/30 01:38:16;;;;;;;1.15;1.05;;;;;;;12.77;76.54;96165.59;5053666;28;20132;-64
2022/09/30 01:40:48;;;;;;;2.17;1.08;;;;;;;12.72;77.14;96158.88;5053072;28;20511;-64
2022/09/30 01:43:28;;;;;;;1.20;1.10;;;;;;;12.70;78.16;96164.22;5053510;28;20077;-64
2022/09/30 01:45:59;;;;;;;1.38;1.10;;;;;;;12.72;77.87;96157.13;5053327;28;20122;-64
2022/09/30 01:48:39;;;;;;;1.42;1.20;;;;;;;12.69;79.75;96159.91;5053308;28;20045;-63
2022/09/30 01:51:14;;;;;;;1.13;1.00;;;;;;;12.74;79.18;96155.25;5053311;28;20049;-64
2022/09/30 01:53:47;;;;;;;1.10;1.00;;;;;;;12.75;78.85;96153.47;5053366;28;20057;-64
2022/09/30 01:56:20;;;;;;;1.33;1.20;;;;;;;12.78;79.31;96161.19;5053210;28;20045;-64
2022/09/30 01:58:54;;;;;;;1.42;1.33;;;;;;;12.83;79.01;96160.94;5053122;28;20041;-64
2022/09/30 02:01:30;;;;;;;1.00;1.00;;;;;;;12.82;78.63;96164.53;5053552;28;20049;-64
2022/09/30 02:04:03;;;;;;;1.35;1.20;;;;;;;12.81;78.25;96162.81;5053192;28;20045;-64
2022/09/30 02:06:36;;;;;;;5.75;1.48;;;;;;;12.81;78.47;96165.44;5052916;28;20399;-64
2022/09/30 02:09:11;;;;;;;1.70;1.20;;;;;;;12.85;79.08;96159.06;5053095;28;20495;-64
2022/09/30 02:11:39;;;;;;;1.30;1.20;;;;;;;12.84;78.55;96153.00;5052953;28;20060;-64
2022/09/30 02:14:11;;;;;;;1.85;1.30;;;;;;;12.76;79.79;96157.78;5053020;28;20457;-64
2022/09/30 02:16:40;;;;;;;1.05;1.02;;;;;;;12.72;80.03;96161.50;5053029;28;20136;-64
2022/09/30 02:19:19;;;;;;;1.38;1.20;;;;;;;12.79;79.96;96162.06;5052934;28;20506;-64
2022/09/30 02:21:52;;;;;;;1.52;1.13;;;;;;;12.84;79.74;96166.13;5052992;28;20505;-64
2022/09/30 02:24:22;;;;;;;1.17;0.93;;;;;;;12.86;79.08;96161.63;5052982;28;20111;-64
2022/09/30 02:26:50;;;;;;;1.70;1.33;;;;;;;12.84;78.52;96166.13;5053009;28;20045;-64
2022/09/30 02:29:22;;;;;;;1.30;1.20;;;;;;;12.82;78.17;96167.97;5052978;28;20045;-64
2022/09/30 02:31:53;;;;;;;1.30;1.20;;;;;;;12.85;78.27;96162.56;5052912;28;20064;-64
2022/09/30 02:34:26;;;;;;;1.67;1.20;;;;;;;12.88;78.44;96169.41;5052845;28;20118;-64
2022/09/30 02:36:59;;;;;;;1.20;1.10;;;;;;;12.90;78.46;96162.31;5052903;28;20045;-64
2022/09/30 02:39:34;;;;;;;1.40;1.30;;;;;;;12.84;78.26;96160.00;5052920;28;20041;-64
2022/09/30 02:42:07;;;;;;;1.50;1.10;;;;;;;12.83;78.16;96167.06;5052892;28;20049;-64
2022/09/30 02:44:35;;;;;;;1.52;1.23;;;;;;;12.85;78.34;96166.94;5052804;28;20384;-64
2022/09/30 02:47:11;;;;;;;1.23;1.13;;;;;;;12.82;78.27;96173.22;5052774;28;20041;-64
2022/09/30 02:49:47;;;;;;;1.10;1.00;;;;;;;12.77;78.19;96173.47;5052819;28;20041;-64
2022/09/30 02:52:25;;;;;;;1.30;1.20;;;;;;;12.73;77.84;96174.56;5056437;28;20061;-64
2022/09/30 02:55:02;;;;;;;1.30;1.20;;;;;;;12.61;78.40;96172.56;5056596;28;20041;-64
2022/09/30 02:57:38;;;;;;;1.20;1.10;;;;;;;12.63;78.92;96181.22;5056877;28;20052;-64
2022/09/30 03:00:07;;;;;;;1.23;1.13;;;;;;;12.59;78.51;96174.44;5056360;28;20410;-64
2022/09/30 03:02:34;;;;;;;1.15;1.05;;;;;;;12.57;78.65;96179.75;5056515;28;20499;-64
2022/09/30 03:05:04;;;;;;;2.22;1.20;;;;;;;12.61;79.11;96177.81;5056577;28;20380;-64
2022/09/30 03:07:31;;;;;;;1.25;1.15;;;;;;;12.59;79.20;96170.06;5056303;28;20458;-64
2022/09/30 03:09:58;;;;;;;1.33;1.23;;;;;;;12.61;78.61;96172.56;5056376;28;20041;-64
2022/09/30 03:12:39;;;;;;;1.40;1.30;;;;;;;12.58;78.46;96167.50;5056254;28;20053;-64
2022/09/30 03:15:30;;;;;;;1.20;1.10;;;;;;;12.55;78.50;96173.72;5056155;28;20045;-64
2022/09/30 03:18:21;;;;;;;1.10;1.00;;;;;;;12.55;77.64;96181.59;5056165;28;20122;-64
2022/09/30 03:21:02;;;;;;;1.38;1.20;;;;;;;12.50;78.08;96183.63;5056126;28;20060;-64
2022/09/30 03:23:45;;;;;;;1.45;1.20;;;;;;;12.45;78.28;96183.88;5056229;28;20103;-64
2022/09/30 03:26:26;;;;;;;1.65;1.10;;;;;;;12.45;78.33;96185.63;5056028;28;20049;-64
2022/09/30 03:29:08;;;;;;;2.20;1.20;;;;;;;12.44;78.77;96184.81;5056080;28;20049;-64
2022/09/30 03:31:41;;;;;;;1.75;1.42;;;;;;;12.43;79.27;96188.34;5055947;28;20052;-64
2022/09/30 03:34:17;;;;;;;1.63;1.13;;;;;;;12.44;78.68;96195.28;5055843;28;20472;-64
2022/09/30 03:36:59;;;;;;;1.10;1.00;;;;;;;12.42;78.68;96196.28;5055700;28;20048;-64
2022/09/30 03:39:37;;;;;;;1.38;1.23;;;;;;;12.34;79.03;96192.28;5055680;28;20136;-64
2022/09/30 03:42:13;;;;;;;1.67;1.45;;;;;;;12.37;79.48;96197.38;5055803;28;20491;-64
2022/09/30 03:44:45;;;;;;;1.48;1.20;;;;;;;12.29;80.04;96203.94;5055750;28;20402;-64
2022/09/30 03:47:17;;;;;;;1.52;1.30;;;;;;;12.28;79.59;96199.63;5055576;28;20148;-64
2022/09/30 03:49:49;;;;;;;1.67;1.23;;;;;;;12.21;79.87;96199.06;5055627;28;20119;-64
2022/09/30 03:52:18;;;;;;;1.70;1.60;;;;;;;12.22;80.38;96195.53;5055531;28;20091;-64
2022/09/30 03:54:49;;;;;;;4.85;1.67;;;;;;;12.21;79.82;96199.91;5055446;28;20064;-64
2022/09/30 03:57:16;;;;;;;1.65;1.55;;;;;;;12.21;80.35;96189.44;5055471;28;20068;-64
2022/09/30 03:59:43;;;;;;;1.40;1.30;;;;;;;12.19;79.42;96191.28;5055331;28;20103;-64
2022/09/30 04:02:12;;;;;;;1.25;1.15;;;;;;;12.18;80.94;96199.22;5054770;28;20413;-64
2022/09/30 04:04:41;;;;;;;1.40;1.30;;;;;;;12.16;83.84;96204.53;5055262;28;20445;-64
2022/09/30 04:07:09;;;;;;;2.10;1.45;;;;;;;12.14;83.59;96211.66;5055137;28;20049;-64
2022/09/30 04:09:38;;;;;;;1.52;1.40;;;;;;;12.18;82.79;96210.56;5055206;28;20103;-64
2022/09/30 04:12:06;;;;;;;2.30;1.50;;;;;;;12.17;82.52;96203.63;5055134;28;20052;-64
2022/09/30 04:14:34;;;;;;;1.52;1.30;;;;;;;12.22;81.52;96204.22;5055265;28;20052;-64
2022/09/30 04:17:02;;;;;;;1.40;1.30;;;;;;;12.22;80.88;96198.16;5055109;28;20080;-64
2022/09/30 04:19:29;;;;;;;2.08;1.30;;;;;;;12.17;80.21;96206.25;5055144;28;20049;-64
2022/09/30 04:21:56;;;;;;;1.00;1.00;;;;;;;12.13;79.75;96197.69;5054941;28;20099;-64
2022/09/30 04:24:25;;;;;;;1.85;1.55;;;;;;;12.09;80.47;96197.91;5054994;28;20080;-64
2022/09/30 04:26:53;;;;;;;2.00;1.38;;;;;;;12.10;81.75;96208.31;5054835;28;20136;-64
2022/09/30 04:29:20;;;;;;;1.60;1.38;;;;;;;12.09;87.22;96205.75;5054892;28;20055;-64
2022/09/30 04:31:47;;;;;;;1.52;1.42;;;;;;;12.18;86.79;96217.56;5054747;28;20059;-64
2022/09/30 04:34:15;;;;;;;1.48;1.30;;;;;;;12.15;84.92;96208.09;5054823;28;20083;-64
2022/09/30 04:36:43;;;;;;;1.67;1.40;;;;;;;12.21;83.64;96220.91;5054777;28;20045;-64
2022/09/30 04:39:10;;;;;;;1.65;1.40;;;;;;;12.27;82.34;96219.75;5054669;28;20498;-64
2022/09/30 04:41:37;;;;;;;1.50;1.40;;;;;;;12.30;81.65;96223.97;5054626;28;20048;-64
2022/09/30 04:44:06;;;;;;;2.08;1.40;;;;;;;12.34;81.79;96225.53;5054639;28;20455;-64
2022/09/30 04:46:35;;;;;;;1.30;1.20;;;;;;;12.41;81.70;96224.31;5054644;28;20106;-64
2022/09/30 04:49:03;;;;;;;1.85;1.50;;;;;;;12.49;80.65;96235.25;5054488;28;20049;-64
2022/09/30 04:51:30;;;;;;;1.50;1.40;;;;;;;12.55;80.33;96241.13;5054413;28;20128;-64
2022/09/30 04:53:59;;;;;;;2.85;1.33;;;;;;;12.57;80.39;96237.47;5054451;28;20102;-64
2022/09/30 04:56:26;;;;;;;1.88;1.50;;;;;;;12.63;80.18;96247.66;5054122;28;20051;-64
2022/09/30 04:58:54;;;;;;;1.90;1.75;;;;;;;12.87;80.96;96255.22;5054271;28;20056;-64
2022/09/30 05:01:23;;;;;;;4.85;1.80;;;;;;;13.74;79.69;96262.06;5054209;28;20084;-64
2022/09/30 05:03:50;;;;;;;2.10;1.50;;;;;;;14.90;75.31;96264.31;5054094;28;20091;-64
2022/09/30 05:06:18;;;;;;;1.85;1.40;;;;;;;16.02;70.08;96267.16;5053860;28;20092;-64
2022/09/30 05:08:45;;;;;;;1.23;1.23;;;;;;;17.12;65.15;96269.63;5054039;28;20048;-65
2022/09/30 05:11:16;;;;;;;1.30;1.20;;;;;;;18.14;60.89;96273.16;5053999;28;20056;-65
2022/09/30 05:13:43;;;;;;;;;;;;;;;19.05;57.04;96284.06;5053648;28;20075;-65
2022/09/30 05:16:10;;;;;;;0.90;0.90;;;;;;;19.82;55.48;96268.47;5053840;28;19921;-65
2022/09/30 05:18:41;;;;;;;1.20;1.10;;;;;;;20.72;53.04;96270.13;5053864;28;20053;-65
2022/09/30 05:21:10;;;;;;;1.33;0.80;;;;;;;21.56;51.12;96275.53;5053867;28;20079;-65
2022/09/30 05:23:37;;;;;;;1.10;0.95;;;;;;;22.32;48.88;96270.69;5053814;28;20122;-65
2022/09/30 05:26:04;;;;;;;0.77;0.77;;;;;;;22.95;46.82;96271.28;5053712;28;20049;-65
2022/09/30 05:28:32;;;;;;;0.70;0.70;;;;;;;23.52;45.79;96272.28;5053726;28;20040;-65
2022/09/30 05:31:02;;;;;;;1.08;0.80;;;;;;;23.72;45.76;96271.19;5053577;28;20438;-65
2022/09/30 05:33:30;;;;;;;1.58;1.48;;;;;;;23.75;45.95;96279.91;5053575;28;20045;-64
2022/09/30 05:36:02;;;;;;;1.10;1.00;;;;;;;24.10;45.62;96279.16;5053640;28;20049;-64
2022/09/30 05:38:29;;;;;;;2.78;1.10;;;;;;;24.90;44.07;96278.63;5053655;28;20465;-64
2022/09/30 05:40:57;;;;;;;1.17;1.00;;;;;;;25.73;41.93;96290.69;5053608;28;20045;-66
2022/09/30 05:43:24;;;;;;;1.20;1.10;;;;;;;26.21;41.27;96292.03;5053695;28;20060;-65
2022/09/30 05:45:55;;;;;;;5.13;1.30;;;;;;;26.79;40.07;96302.06;5053412;28;20487;-65
2022/09/30 05:48:22;;;;;;;1.48;1.38;;;;;;;27.27;38.97;96294.16;5053322;28;20045;-67
2022/09/30 05:50:53;;;;;;;1.38;1.10;;;;;;;27.66;38.39;96297.97;5053433;28;20053;-65
2022/09/30 05:53:22;;;;;;;0.93;0.93;;;;;;;27.95;37.88;96301.91;5053265;28;20144;-66
2022/09/30 05:55:50;;;;;;;0.77;0.77;;;;;;;28.49;36.61;96296.78;5053409;28;20407;-66
2022/09/30 05:58:18;;;;;;;0.80;0.80;;;;;;;29.03;35.16;96295.06;5053391;28;20098;-64
2022/09/30 06:00:47;;;;;;;1.08;1.08;;;;;;;29.49;34.81;96287.91;5053234;28;20084;-66
2022/09/30 06:03:15;;;;;;;0.90;0.90;;;;;;;29.83;34.32;96302.69;5053269;28;20045;-65
2022/09/30 06:05:43;;;;;;;1.83;1.17;;;;;;;30.44;33.45;96318.81;5052890;28;20049;-65
2022/09/30 06:08:10;;;;;;;1.45;1.10;;;;;;;31.04;32.72;96317.78;5053170;28;20049;-66
2022/09/30 06:10:42;;;;;;;1.20;1.10;;;;;;;31.36;32.49;96310.19;5053178;28;20056;-66
2022/09/30 06:13:10;;;;;;;0.90;0.73;;;;;;;31.43;32.18;96315.63;5052924;28;20052;-66
2022/09/30 06:15:38;;;;;;;1.48;1.10;;;;;;;31.76;31.52;96320.44;5053130;28;20479;-67
2022/09/30 06:18:05;;;;;;;1.08;0.90;;;;;;;32.18;31.13;96325.03;5052929;28;20052;-66
2022/09/30 06:20:32;;;;;;;0.88;0.88;;;;;;;32.50;30.02;96323.50;5053015;28;20075;-67
2022/09/30 06:23:01;;;;;;;1.48;1.38;;;;;;;32.79;29.47;96323.38;5052862;28;20561;-65
2022/09/30 06:25:28;;;;;;;0.70;0.68;;;;;;;33.17;29.04;96326.56;5053968;28;20558;-65
2022/09/30 06:27:57;;;;;;;0.70;0.70;;;;;;;33.39;29.18;96317.19;5057092;28;20094;-67
2022/09/30 06:30:24;;;;;;;0.90;0.90;;;;;;;33.70;28.15;96311.31;5056999;28;20055;-66
2022/09/30 06:32:52;;;;;;;0.90;0.90;;;;;;;33.82;28.10;96308.78;5057124;28;20057;-65
2022/09/30 06:35:22;;;;;;;1.15;0.80;;;;;;;33.78;28.72;96306.53;5057088;28;20102;-67
2022/09/30 06:37:51;;;;;;;1.65;1.17;;;;;;;33.80;28.71;96311.72;5057116;28;20445;-66
2022/09/30 06:40:18;;;;;;;0.85;0.85;;;;;;;33.70;28.84;96314.03;5056933;28;20052;-65
2022/09/30 06:42:46;;;;;;;0.80;0.80;;;;;;;33.78;28.91;96308.38;5056821;28;20131;-66
2022/09/30 06:45:17;;;;;;;1.30;1.10;;;;;;;33.90;28.62;96311.28;5056723;28;20070;-67
2022/09/30 06:47:47;;;;;;;1.02;0.90;;;;;;;33.73;29.92;96313.59;5056963;28;20053;-67
2022/09/30 06:50:14;;;;;;;1.17;1.07;;;;;;;33.62;30.01;96317.81;5056663;28;20052;-65
2022/09/30 06:52:41;;;;;;;1.25;1.15;;;;;;;33.35;30.72;96320.53;5056569;28;20128;-66
2022/09/30 06:55:08;;;;;;;1.40;1.30;;;;;;;33.30;30.14;96323.00;5056511;28;20048;-67
2022/09/30 06:57:36;;;;;;;1.17;1.10;;;;;;;32.98;30.55;96329.84;5056494;28;20045;-67
2022/09/30 07:00:04;;;;;;;1.42;1.17;;;;;;;32.52;31.13;96334.97;5056461;28;20410;-66
2022/09/30 07:02:34;;;;;;;1.15;1.05;;;;;;;32.32;31.80;96342.97;5056353;28;20045;-65
2022/09/30 07:05:02;;;;;;;0.97;0.97;;;;;;;32.31;31.63;96341.31;5056441;28;20049;-65
2022/09/30 07:07:32;;;;;;;1.00;1.00;;;;;;;32.12;32.16;96348.31;5056129;28;20286;-65
2022/09/30 07:09:59;;;;;;;3.35;1.27;;;;;;;31.81;32.62;96344.97;5056464;28;20505;-65
2022/09/30 07:12:27;;;;;;;1.67;1.00;;;;;;;31.49;32.26;96347.28;5056217;28;20106;-64
2022/09/30 07:14:55;;;;;;;1.13;1.02;;;;;;;31.06;34.12;96346.25;5056336;28;20076;-66
2022/09/30 07:17:22;;;;;;;1.45;1.02;;;;;;;30.76;33.38;96347.22;5056155;28;20053;-64
2022/09/30 07:19:51;;;;;;;1.25;1.15;;;;;;;30.64;35.63;96363.03;5056173;28;20102;-65
2022/09/30 07:22:28;;;;;;;1.40;1.30;;;;;;;30.47;34.26;96359.75;5056287;28;20134;-65
2022/09/30 07:24:57;;;;;;;1.33;1.23;;;;;;;30.57;34.52;96369.38;5056138;28;20052;-66
2022/09/30 07:27:24;;;;;;;1.40;1.30;;;;;;;30.43;34.65;96368.41;5056287;28;20388;-66
2022/09/30 07:29:52;;;;;;;2.08;1.30;;;;;;;30.52;35.56;96376.19;5056033;28;20479;-67
2022/09/30 11:51:04;;;;;;;1.35;1.25;;;;;;;28.51;32.25;96402.34;6094159;22;1997578;-66
2022/09/30 11:53:42;;;;;;;1.50;1.30;;;;;;;28.51;32.37;96408.53;6156040;23;20479;-66
2022/09/30 11:56:23;;;;;;;1.30;1.20;;;;;;;28.60;33.16;96403.13;6129764;23;20025;-66
2022/09/30 11:58:53;;;;;;;1.42;1.20;;;;;;;28.66;31.58;96394.38;6155921;23;20455;-66
2022/09/30 12:01:27;;;;;;;1.27;1.17;;;;;;;28.74;31.74;96390.78;6155959;23;20525;-66
2022/09/30 12:04:00;;;;;;;1.42;1.15;;;;;;;28.67;31.95;96393.34;6155958;23;20025;-66
2022/09/30 12:06:34;;;;;;;1.58;1.48;;;;;;;28.60;31.69;96390.50;6155899;23;20017;-66
2022/09/30 12:09:08;;;;;;;1.45;1.35;;;;;;;28.65;32.16;96381.91;6155894;23;20028;-66
2022/09/30 12:11:44;;;;;;;1.20;1.10;;;;;;;28.59;31.47;96393.41;6155956;23;20021;-66
2022/09/30 12:14:17;;;;;;;0.98;0.98;;;;;;;28.59;32.13;96388.84;6155976;23;20022;-65
2022/09/30 12:16:47;;;;;;;1.38;1.27;;;;;;;28.47;32.19;96388.41;6155825;23;20064;-68
2022/09/30 12:19:19;;;;;;;1.70;1.40;;;;;;;28.42;31.74;96398.00;6156180;23;20021;-66
2022/09/30 12:21:55;;;;;;;1.52;1.20;;;;;;;28.51;32.66;96396.97;6155815;23;20354;-65
2022/09/30 12:24:28;;;;;;;1.90;1.25;;;;;;;28.58;31.58;96391.72;6155980;23;20053;-66
2022/09/30 12:26:56;;;;;;;1.10;1.00;;;;;;;28.64;31.11;96385.63;6156220;23;20049;-66
2022/09/30 12:32:32;;;;;;;1.25;1.00;;;;;;;28.71;30.45;96389.28;6155948;23;20072;-66
2022/09/30 12:35:20;;;;;;;1.27;1.15;;;;;;;28.59;31.44;96390.72;6155740;23;20028;-66
2022/09/30 12:38:07;;;;;;;1.08;0.98;;;;;;;28.55;30.91;96389.38;6156216;23;20076;-66
2022/09/30 12:40:47;;;;;;;1.35;0.90;;;;;;;28.53;31.46;96394.91;6155911;23;20468;-66
2022/09/30 12:44:04;;;;;;;1.23;0.85;;;;;;;28.48;31.29;96400.81;6156090;23;20021;-66
2022/09/30 12:46:54;;;;;;;0.88;0.80;;;;;;;28.43;31.45;96408.59;6156133;23;20045;-66
2022/09/30 12:49:25;;;;;;;1.98;1.30;;;;;;;28.26;31.21;96408.63;6155784;23;20321;-65
2022/09/30 12:51:56;;;;;;;0.70;0.70;;;;;;;28.37;31.75;96409.28;6155739;23;20021;-65
2022/09/30 12:54:31;;;;;;;0.80;0.80;;;;;;;28.34;31.32;96402.41;6156113;23;20075;-66
2022/09/30 12:57:03;;;;;;;1.58;0.90;;;;;;;28.37;31.30;96403.91;6156995;23;20021;-66
2022/09/30 12:59:33;;;;;;;0.90;0.90;;;;;;;28.36;31.43;96399.56;6157488;23;20025;-66
2022/09/30 13:02:02;;;;;;;1.08;0.90;;;;;;;28.40;31.15;96395.50;6158028;23;20076;-66
2022/09/30 13:04:35;;;;;;;2.30;1.40;;;;;;;28.38;31.25;96402.88;6157728;23;20404;-65
2022/09/30 13:07:21;;;;;;;0.82;0.82;;;;;;;28.25;32.08;96409.66;6157623;23;20025;-65
2022/09/30 13:10:30;;;;;;;1.85;1.17;;;;;;;28.25;30.49;96409.66;6157774;23;20021;-66
2022/09/30 13:13:20;;;;;;;1.55;1.10;;;;;;;28.30;31.36;96409.16;6157647;23;20026;-66
2022/09/30 13:15:48;;;;;;;0.55;0.55;;;;;;;28.35;31.09;96409.47;6136195;23;20028;-66
2022/09/30 13:18:51;;;;;;;1.05;0.95;;;;;;;28.41;31.75;96412.47;6157285;23;20021;-66
2022/09/30 13:21:23;;;;;;;1.42;0.95;;;;;;;28.41;31.10;96412.47;6157791;23;20049;-66
2022/09/30 13:23:51;;;;;;;1.17;1.08;;;;;;;28.41;32.01;96409.78;6157375;23;20392;-66
2022/09/30 13:26:48;;;;;;;1.10;0.80;;;;;;;28.42;31.60;96414.16;6157576;23;20021;-66
2022/09/30 13:29:38;;;;;;;0.77;0.77;;;;;;;28.46;31.18;96412.78;6157649;23;20022;-66
2022/09/30 13:32:08;;;;;;;1.17;1.13;;;;;;;28.47;31.78;96414.47;6157270;23;20456;-66
2022/09/30 13:34:53;;;;;;;0.82;0.80;;;;;;;28.42;30.81;96414.16;6157256;23;20024;-66
2022/09/30 13:37:39;;;;;;;1.77;0.80;;;;;;;28.36;30.89;96418.38;6157570;23;20390;-66
2022/09/30 13:40:20;;;;;;;1.70;1.00;;;;;;;28.38;30.75;96406.44;6157402;23;20029;-66
2022/09/30 13:42:54;;;;;;;0.70;0.70;;;;;;;28.44;30.49;96409.44;6157157;23;20052;-66
2022/09/30 13:45:32;;;;;;;0.73;0.73;;;;;;;28.46;31.09;96412.78;6157172;23;20100;-66
2022/09/30 13:48:09;;;;;;;1.95;1.15;;;;;;;28.44;29.27;96409.44;6157031;23;20029;-66
2022/09/30 13:50:45;;;;;;;0.90;0.90;;;;;;;28.33;29.73;96413.34;6157091;23;20085;-65
2022/09/30 13:53:28;;;;;;;0.85;0.80;;;;;;;28.30;30.62;96416.38;6157558;23;20017;-66
2022/09/30 13:55:57;;;;;;;1.15;0.77;;;;;;;28.29;32.25;96412.84;6157004;23;20021;-66
2022/09/30 13:58:53;;;;;;;0.90;0.90;;;;;;;28.29;31.18;96417.38;6157340;23;20028;-66
2022/09/30 14:01:34;;;;;;;1.02;0.82;;;;;;;28.28;31.70;96415.66;6157066;23;20022;-66
2022/09/30 14:04:34;;;;;;;0.90;0.90;;;;;;;28.30;31.71;96411.84;6157003;23;20023;-66
2022/09/30 14:07:11;;;;;;;0.73;0.73;;;;;;;28.30;31.19;96421.75;6157388;23;20021;-65
2022/09/30 14:09:54;;;;;;;0.93;0.90;;;;;;;28.18;31.34;96424.78;6156961;23;20021;-67
2022/09/30 14:12:38;;;;;;;0.95;0.90;;;;;;;28.03;31.46;96421.97;6156870;23;20049;-66
2022/09/30 14:15:25;;;;;;;0.93;0.90;;;;;;;28.06;31.10;96437.78;6156877;23;20053;-66
2022/09/30 14:18:08;;;;;;;1.05;0.80;;;;;;;28.00;30.49;96428.50;6156794;23;20025;-66
2022/09/30 14:20:56;;;;;;;2.05;0.90;;;;;;;28.02;31.94;96425.66;6157118;23;20137;-66
2022/09/30 14:23:23;;;;;;;0.90;0.90;;;;;;;27.97;30.79;96442.31;6156688;23;20026;-65
2022/09/30 14:25:57;;;;;;;1.15;1.02;;;;;;;27.98;30.37;96435.09;6156726;23;20317;-66
2022/09/30 14:28:34;;;;;;;0.75;0.75;;;;;;;27.98;30.60;96443.13;6156720;23;20060;-66
2022/09/30 14:31:11;;;;;;;0.80;0.80;;;;;;;27.96;31.16;96443.31;6157091;23;20021;-65
2022/09/30 14:33:40;;;;;;;0.90;0.80;;;;;;;27.85;30.94;96449.06;6156617;23;20022;-65
2022/09/30 14:36:14;;;;;;;0.80;0.80;;;;;;;27.83;30.72;96454.59;6156981;23;20025;-66
2022/09/30 14:38:45;;;;;;;0.80;0.80;;;;;;;27.65;30.47;96449.41;6157043;23;20395;-66
2022/09/30 14:41:19;;;;;;;1.38;1.00;;;;;;;27.61;30.82;96451.56;6156468;23;20057;-66
2022/09/30 14:43:49;;;;;;;1.23;0.63;;;;;;;27.61;31.09;96451.56;6156752;23;20092;-66
2022/09/30 14:46:27;;;;;;;0.68;0.68;;;;;;;27.53;31.18;96456.06;6156602;23;20022;-66
2022/09/30 14:48:57;;;;;;;0.50;0.50;;;;;;;27.52;31.05;96457.94;6156449;23;20021;-66
2022/09/30 14:51:26;;;;;;;1.65;1.10;;;;;;;27.45;31.05;96463.13;6156926;23;20032;-66
2022/09/30 14:53:56;;;;;;;1.05;0.80;;;;;;;27.45;31.08;96468.50;6156917;23;20018;-66
2022/09/30 14:56:29;;;;;;;0.95;0.70;;;;;;;27.43;30.83;96469.69;6156471;23;20021;-66
2022/09/30 14:58:58;;;;;;;1.20;1.00;;;;;;;27.43;30.92;96469.69;6156411;23;20170;-66
2022/09/30 15:01:31;;;;;;;0.90;0.88;;;;;;;27.41;31.05;96469.00;6156366;23;20100;-66
2022/09/30 15:04:02;;;;;;;0.68;0.68;;;;;;;27.38;31.16;96479.09;6156535;23;20356;-66
2022/09/30 15:06:32;;;;;;;0.80;0.80;;;;;;;27.36;31.04;96481.09;6156701;23;20088;-66
2022/09/30 15:09:05;;;;;;;0.80;0.80;;;;;;;27.33;31.13;96478.72;6156244;23;20053;-66
2022/09/30 15:11:34;;;;;;;0.77;0.77;;;;;;;27.30;31.69;96481.75;6156394;23;20248;-65
2022/09/30 15:14:06;;;;;;;0.73;0.73;;;;;;;27.23;31.78;96484.25;6156775;23;20022;-66
2022/09/30 15:16:35;;;;;;;2.80;0.77;;;;;;;27.09;32.29;96477.69;6156336;23;20452;-66
2022/09/30 15:19:02;;;;;;;0.80;0.80;;;;;;;26.91;34.04;96485.00;6155963;23;20026;-66
2022/09/30 15:21:33;;;;;;;2.05;0.80;;;;;;;26.59;36.14;96477.53;6156430;23;20029;-67
2022/09/30 15:24:01;;;;;;;0.80;0.80;;;;;;;26.30;36.48;96492.13;6156688;23;20096;-66
2022/09/30 15:26:29;;;;;;;1.15;1.05;;;;;;;26.06;37.53;96487.41;6157007;23;20021;-66
2022/09/30 15:28:56;;;;;;;0.77;0.77;;;;;;;25.78;38.23;96496.44;6156286;23;20397;-66
2022/09/30 15:31:27;;;;;;;0.82;0.82;;;;;;;25.51;38.26;96492.84;6156510;23;20072;-65
2022/09/30 15:34:07;;;;;;;1.13;1.00;;;;;;;25.20;39.62;96499.41;6156241;23;20024;-67
2022/09/30 15:36:35;;;;;;;;;;;;;;;24.93;40.38;96503.84;6157160;23;20384;-66
2022/09/30 15:39:03;;;;;;;0.80;0.80;;;;;;;24.66;41.25;96496.63;6156882;23;19920;-66
2022/09/30 15:41:38;;;;;;;1.13;0.90;;;;;;;24.43;41.70;96503.19;6156428;23;20344;-67
2022/09/30 15:44:16;;;;;;;1.20;1.10;;;;;;;24.20;42.40;96508.06;6156757;23;20025;-67
2022/09/30 15:47:01;;;;;;;1.00;1.00;;;;;;;23.99;43.25;96511.75;6156464;23;20018;-66
2022/09/30 15:49:44;;;;;;;1.30;1.20;;;;;;;23.79;44.14;96513.56;6155980;23;20536;-65
2022/09/30 15:52:28;;;;;;;1.25;1.00;;;;;;;23.47;44.74;96518.22;6156150;23;20463;-66
2022/09/30 15:54:56;;;;;;;0.98;0.90;;;;;;;23.25;44.07;96524.63;6156543;23;20096;-66
2022/09/30 15:57:45;;;;;;;0.98;0.93;;;;;;;23.07;44.75;96525.31;6156107;23;20096;-66
2022/09/30 16:00:34;;;;;;;1.45;1.17;;;;;;;22.88;45.40;96526.97;6156044;23;20061;-65
2022/09/30 16:03:24;;;;;;;1.50;1.23;;;;;;;22.64;45.62;96522.84;6156586;23;20096;-66
2022/09/30 16:05:54;;;;;;;1.15;0.90;;;;;;;22.45;47.07;96527.06;6156088;23;20092;-66
2022/09/30 16:08:26;;;;;;;1.70;1.20;;;;;;;22.26;47.50;96530.47;6156160;23;20025;-66
2022/09/30 16:10:57;;;;;;;1.05;1.02;;;;;;;22.02;47.74;96530.75;6156244;23;20053;-67
2022/09/30 16:13:27;;;;;;;;;;;;;;;21.81;47.78;96543.09;6156832;23;20028;-69
2022/09/30 16:15:56;;;;;;;1.35;1.17;;;;;;;21.57;49.01;96543.28;6156208;23;19916;-69
2022/09/30 16:18:26;;;;;;;1.40;1.30;;;;;;;21.20;49.47;96553.31;6156151;23;20460;-68
2022/09/30 16:21:01;;;;;;;1.27;1.15;;;;;;;21.03;50.30;96548.53;6155931;23;20025;-69
2022/09/30 16:23:35;;;;;;;1.13;1.13;;;;;;;20.83;51.10;96556.28;6156040;23;20029;-68